Pagrindinis puslapis
METAR-TAF:

METAR-TAF

Oro uostai :

Liuksemburgas, Liuksemburgas

platuma: 49-37N, ilguma: 006-13E, Aukštis: 376 m

Dabartinis oras

Ataskaita buvo paskelbta 33 minutes, ne 03:20 UTC
Vėjas 9 kt iš Pietvakarių
Temperatūra 6°C
Drėgmė 93%
Slėgis 1015 hPa
Matomumas 10 km arba daugiau

METAR: ELLX 170320Z AUTO 23009KT 9999 FEW011/// SCT014/// BKN016/// 06/05 Q1015 NOSIG

Laikas: 04:53 (03:53 UTC)

Prognozė

Ataskaita buvo paskelbta 4 valandos ir 53 minutes, ne 23:00 UTC
Prognozė galioja nuo 17 metu 00 UTC su 18 metu 06 UTC
Vėjas 15 kt iš Vakarų/Pietvakarių
Matomumas 10 km arba daugiau
Mažai debesys ne aukštis 1800 ft
Su prošvaistėmis ne aukštis 2500 ft
Laikinai
nuo 17 metu 10 UTC su 18 metu 06 UTC
Vėjas 15 kt iš Vakarų/Pietvakarių su gūsio iki 25 kt
Išsisklaidę debesys ne aukštis 2000 ft, aukštai iškilę kamuoliniai debesys.

TAF: ELLX 162300Z 1700/1806 24015KT 9999 FEW018 BKN025 TEMPO 1710/1806 24015G25KT SCT020TCU

Orai ataskaitas ir orų prognozės (METAR, TAF).

turimą stotys yra geltonos ir raudonos taškus žemėlapyje.

Perkelti pele per norėdami pamatyti stoties vardą.

Tada spustelėkite, norėdami matyti oro stebėjimo ir prognozės.

Norėdami pakeisti žemėlapį: spustelėkite ant žalios mygtukų su juodo kryžiaus žemyn,; žalią mygtuką su brūkšneliu, jei norite nutolinti; arba žalių rodyklių gretimoms žemėlapius.


METAR-TAF: